Time;durP1;ratioP1;P1;durP2;ratioP2;P2;SDS_P1;SDS_P2;PMS_P1;PMS_P2;Temp;Humidity;BMP_temperature;BMP_pressure;BME280_temperature;BME280_humidity;BME280_pressure;Samples;Min_cycle;Max_cycle;Signal;HPM_P1;HPM_P2
2022/12/16 00:01:11;;;;;;;41.50;22.27;;;0.20;99.90;;;;;;5074831;28;20055;-79
2022/12/16 00:03:38;;;;;;;47.42;22.40;;;0.10;99.90;;;;;;5075024;28;20478;-79
2022/12/16 00:06:05;;;;;;;39.78;19.17;;;0.10;99.90;;;;;;5074834;28;20431;-79
2022/12/16 00:08:34;;;;;;;33.25;19.10;;;0.10;99.90;;;;;;5073327;28;20032;-78
2022/12/16 00:11:00;;;;;;;38.97;19.83;;;0.10;99.90;;;;;;5074702;28;20413;-79
2022/12/16 00:13:27;;;;;;;33.47;16.23;;;0.20;99.90;;;;;;5074833;28;20025;-79
2022/12/16 00:15:53;;;;;;;34.60;17.58;;;0.20;99.90;;;;;;5073218;28;20055;-79
2022/12/16 00:18:19;;;;;;;37.72;17.13;;;0.10;99.90;;;;;;5074683;28;20033;-78
2022/12/16 00:20:50;;;;;;;35.45;17.25;;;0.00;99.90;;;;;;5074557;28;20485;-79
2022/12/16 00:23:16;;;;;;;28.65;16.60;;;0.00;99.90;;;;;;5074323;28;20044;-79
2022/12/16 00:25:44;;;;;;;39.72;17.88;;;0.10;99.90;;;;;;5074427;28;20020;-78
2022/12/16 00:28:11;;;;;;;35.40;16.77;;;0.20;99.90;;;;;;5056501;28;20068;-79
2022/12/16 00:30:37;;;;;;;31.38;17.90;;;0.30;99.90;;;;;;5073028;28;20086;-78
2022/12/16 00:33:04;;;;;;;36.72;17.63;;;0.30;99.90;;;;;;5073713;28;20036;-77
2022/12/16 00:35:30;;;;;;;36.05;18.10;;;0.20;99.90;;;;;;5080508;28;20024;-76
2022/12/16 00:37:56;;;;;;;36.60;17.98;;;0.20;99.90;;;;;;5073965;28;20428;-78
2022/12/16 00:40:22;;;;;;;43.50;20.45;;;0.20;99.90;;;;;;5074014;28;20373;-78
2022/12/16 00:42:48;;;;;;;34.33;18.48;;;0.20;99.90;;;;;;5074282;28;20032;-78
2022/12/16 00:45:13;;;;;;;37.22;19.15;;;0.20;99.90;;;;;;5073872;28;20020;-77
2022/12/16 00:47:39;;;;;;;37.75;18.40;;;0.40;99.90;;;;;;5074044;28;20029;-77
2022/12/16 00:50:06;;;;;;;45.20;19.42;;;0.40;99.90;;;;;;5073893;28;20029;-77
2022/12/16 00:52:32;;;;;;;42.72;19.98;;;0.50;99.90;;;;;;5073777;28;20039;-78
2022/12/16 00:54:57;;;;;;;43.53;18.58;;;0.70;99.90;;;;;;5074119;28;20025;-78
2022/12/16 00:57:23;;;;;;;32.20;16.58;;;0.60;99.90;;;;;;5073462;28;20043;-77
2022/12/16 00:59:49;;;;;;;32.50;18.23;;;0.50;99.90;;;;;;5073771;28;20476;-78
2022/12/16 01:02:15;;;;;;;37.42;18.88;;;0.40;99.90;;;;;;5072424;28;20032;-76
2022/12/16 01:04:40;;;;;;;31.90;17.55;;;0.40;99.90;;;;;;5073740;28;20103;-77
2022/12/16 01:07:07;;;;;;;35.85;18.30;;;0.60;99.90;;;;;;5073322;28;20382;-77
2022/12/16 01:09:32;;;;;;;30.20;17.40;;;0.60;99.90;;;;;;5073637;28;20056;-78
2022/12/16 01:11:58;;;;;;;30.80;18.27;;;0.60;99.90;;;;;;5073323;28;20461;-78
2022/12/16 01:14:24;;;;;;;35.00;17.58;;;0.70;99.90;;;;;;5072518;28;20493;-78
2022/12/16 01:16:50;;;;;;;36.85;18.25;;;0.70;99.90;;;;;;5071978;28;20473;-78
2022/12/16 01:19:16;;;;;;;47.58;20.50;;;0.50;99.90;;;;;;5073467;28;20047;-78
2022/12/16 01:21:41;;;;;;;37.67;18.38;;;0.60;99.90;;;;;;5071754;28;20096;-78
2022/12/16 01:24:09;;;;;;;40.85;19.00;;;0.50;99.90;;;;;;5073388;28;20107;-78
2022/12/16 01:26:35;;;;;;;38.50;19.63;;;0.50;99.90;;;;;;5073259;28;20447;-78
2022/12/16 01:29:01;;;;;;;35.58;17.15;;;0.60;99.90;;;;;;5073183;28;20428;-78
2022/12/16 01:31:27;;;;;;;39.95;17.70;;;0.20;99.90;;;;;;5073065;28;20032;-78
2022/12/16 01:33:53;;;;;;;36.70;17.48;;;0.10;99.90;;;;;;5071747;28;20029;-78
2022/12/16 01:36:19;;;;;;;27.08;16.70;;;0.20;99.90;;;;;;5071426;28;20032;-78
2022/12/16 01:38:45;;;;;;;23.80;11.73;;;0.20;99.90;;;;;;5071817;28;20127;-78
2022/12/16 01:41:12;;;;;;;25.83;11.88;;;0.40;99.90;;;;;;5071878;28;20067;-79
2022/12/16 01:43:40;;;;;;;22.77;9.90;;;0.80;99.90;;;;;;5073040;28;20108;-78
2022/12/16 01:46:08;;;;;;;21.33;9.32;;;1.00;99.90;;;;;;5072907;28;20503;-78
2022/12/16 01:48:42;;;;;;;15.70;8.70;;;1.30;99.90;;;;;;5072930;28;20127;-78
2022/12/16 01:51:26;;;;;;;19.63;8.98;;;1.90;99.90;;;;;;5072680;28;20020;-79
2022/12/16 01:53:57;;;;;;;21.38;8.23;;;2.20;99.90;;;;;;5073277;28;20032;-79
2022/12/16 01:56:30;;;;;;;18.80;6.95;;;2.30;99.90;;;;;;5072998;28;20074;-78
2022/12/16 01:58:57;;;;;;;13.48;7.35;;;2.50;99.90;;;;;;5072917;28;20032;-78
2022/12/16 02:01:22;;;;;;;13.35;7.03;;;2.60;99.90;;;;;;5071372;28;20035;-79
2022/12/16 02:03:51;;;;;;;16.02;7.78;;;2.50;99.90;;;;;;5071319;28;20017;-79
2022/12/16 02:06:17;;;;;;;17.33;7.75;;;2.50;99.90;;;;;;5072893;28;20035;-78
2022/12/16 02:08:43;;;;;;;23.50;7.97;;;2.70;99.90;;;;;;5072335;28;20036;-79
2022/12/16 02:11:15;;;;;;;21.25;9.32;;;2.60;99.90;;;;;;5072877;28;20028;-79
2022/12/16 02:13:46;;;;;;;;;;;2.40;99.90;;;;;;5072975;28;20089;-78
2022/12/16 02:16:18;;;;;;;26.15;9.95;;;2.20;99.90;;;;;;5072733;28;19931;-79
2022/12/16 02:18:56;;;;;;;16.52;9.60;;;2.20;99.90;;;;;;5072167;28;20044;-78
2022/12/16 02:22:06;;;;;;;18.10;9.98;;;2.30;99.90;;;;;;5072521;28;20020;-78
2022/12/16 02:24:56;;;;;;;13.55;9.50;;;2.40;99.90;;;;;;4981472;28;20034;-78
2022/12/16 02:27:32;;;;;;;20.40;9.32;;;2.40;99.90;;;;;;5054946;28;20048;-78
2022/12/16 02:30:01;;;;;;;18.85;10.55;;;2.70;99.90;;;;;;5072581;28;20082;-78
2022/12/16 02:32:49;;;;;;;23.65;11.40;;;2.60;99.90;;;;;;5072088;28;20035;-80
2022/12/16 02:35:46;;;;;;;20.08;11.50;;;2.60;99.90;;;;;;5071120;28;20036;-78
2022/12/16 02:38:27;;;;;;;23.67;13.77;;;2.60;99.90;;;;;;5071293;28;20095;-79
2022/12/16 02:41:02;;;;;;;21.00;13.60;;;2.60;99.90;;;;;;5072449;28;20020;-79
2022/12/16 02:43:49;;;;;;;27.80;13.38;;;2.70;99.90;;;;;;5071166;28;20286;-79
2022/12/16 02:46:18;;;;;;;25.25;13.63;;;2.80;99.90;;;;;;5059032;28;20115;-78
2022/12/16 02:48:43;;;;;;;23.70;14.63;;;2.80;99.90;;;;;;5071957;28;20029;-79
2022/12/16 02:51:09;;;;;;;31.10;15.57;;;3.00;99.90;;;;;;5072358;28;20025;-79
2022/12/16 02:53:37;;;;;;;23.73;15.27;;;2.90;99.90;;;;;;5072288;28;20131;-77
2022/12/16 02:56:41;;;;;;;25.48;16.60;;;2.80;99.90;;;;;;5073480;28;20358;-78
2022/12/16 02:59:23;;;;;;;30.55;15.90;;;2.90;99.90;;;;;;5066854;28;20115;-76
2022/12/16 03:02:18;;;;;;;24.80;16.33;;;2.90;99.90;;;;;;5074372;28;20028;-79
2022/12/16 03:05:07;;;;;;;28.15;16.48;;;3.20;99.90;;;;;;5075981;28;20024;-78
2022/12/16 03:07:35;;;;;;;27.20;15.32;;;3.10;99.90;;;;;;5075835;28;20025;-78
2022/12/16 03:10:06;;;;;;;22.60;14.90;;;3.00;99.90;;;;;;5075801;28;20051;-79
2022/12/16 03:12:34;;;;;;;20.70;11.63;;;3.00;99.90;;;;;;5076101;28;20116;-75
2022/12/16 03:15:00;;;;;;;21.10;14.07;;;3.00;99.90;;;;;;5079503;28;20031;-75
2022/12/16 03:17:27;;;;;;;23.20;13.20;;;2.90;99.90;;;;;;5097157;28;20035;-79
2022/12/16 03:20:14;;;;;;;20.77;12.68;;;3.10;99.90;;;;;;5094683;28;20388;-79
2022/12/16 03:22:45;;;;;;;27.42;14.60;;;3.10;99.90;;;;;;5094541;28;20500;-78
2022/12/16 03:25:11;;;;;;;23.63;14.57;;;3.00;99.90;;;;;;5096107;28;20020;-79
2022/12/16 03:27:56;;;;;;;25.40;14.57;;;3.10;99.90;;;;;;5095039;28;20665;-79
2022/12/16 03:30:39;;;;;;;20.85;13.65;;;3.30;99.90;;;;;;5096038;28;20052;-78
2022/12/16 03:33:07;;;;;;;23.23;13.90;;;3.30;99.90;;;;;;5096348;28;20032;-79
2022/12/16 03:35:36;;;;;;;22.27;13.68;;;3.20;99.90;;;;;;5095905;28;20472;-75
2022/12/16 03:38:04;;;;;;;25.30;15.63;;;3.30;99.90;;;;;;5095682;28;20480;-75
2022/12/16 03:40:31;;;;;;;25.38;14.50;;;3.40;99.90;;;;;;5095446;28;20112;-75
2022/12/16 03:42:58;;;;;;;21.13;13.80;;;3.40;99.90;;;;;;5095790;28;20530;-76
2022/12/16 03:45:27;;;;;;;20.65;14.07;;;3.60;99.90;;;;;;5095162;28;20043;-75
2022/12/16 03:47:56;;;;;;;27.50;13.38;;;3.50;99.90;;;;;;5095622;28;20066;-74
2022/12/16 03:50:26;;;;;;;20.98;13.55;;;3.50;99.90;;;;;;5094891;28;20036;-75
2022/12/16 03:52:52;;;;;;;29.42;14.70;;;3.40;99.90;;;;;;5094264;28;20063;-75
2022/12/16 03:55:18;;;;;;;28.65;14.23;;;3.40;99.90;;;;;;5095271;28;20051;-76
2022/12/16 03:57:44;;;;;;;29.92;14.00;;;3.50;99.90;;;;;;5095430;28;20119;-76
2022/12/16 04:00:10;;;;;;;31.90;14.85;;;3.40;99.90;;;;;;5093599;28;20035;-75
2022/12/16 04:02:39;;;;;;;24.48;13.55;;;3.50;99.90;;;;;;5095210;28;20177;-76
2022/12/16 04:05:05;;;;;;;29.05;13.88;;;3.40;99.90;;;;;;5095013;28;20516;-75
2022/12/16 04:07:31;;;;;;;42.45;14.20;;;3.40;99.90;;;;;;5093668;28;20464;-76
2022/12/16 04:09:57;;;;;;;35.50;13.93;;;3.50;99.90;;;;;;5095093;28;20036;-75
2022/12/16 04:26:11;;;;;;;20.60;10.05;;;3.20;99.90;;;;;;5094543;28;20418;-80
2022/12/16 04:28:37;;;;;;;25.52;9.75;;;3.30;99.90;;;;;;5094406;28;20039;-79
2022/12/16 04:31:03;;;;;;;19.92;9.73;;;3.10;99.90;;;;;;5093459;28;20410;-78
